createdAt,value
2018-05-21T00:01:50.304Z,9.83
2018-05-21T00:04:18.590Z,8.73
2018-05-21T00:06:46.875Z,10.33
2018-05-21T00:09:15.198Z,10.50
2018-05-21T00:11:43.478Z,9.60
2018-05-21T00:14:11.749Z,9.30
2018-05-21T00:16:40.125Z,9.67
2018-05-21T00:19:08.311Z,8.97
2018-05-21T00:21:36.606Z,10.17
2018-05-21T00:24:04.892Z,8.97
2018-05-21T00:26:33.166Z,9.73
2018-05-21T00:29:01.784Z,10.03
2018-05-21T00:31:30.093Z,9.17
2018-05-21T00:33:58.382Z,10.37
2018-05-21T00:36:26.659Z,9.20
2018-05-21T00:38:55.258Z,8.40
2018-05-21T00:41:23.861Z,11.00
2018-05-21T00:43:52.149Z,8.47
2018-05-21T00:46:20.426Z,9.57
2018-05-21T00:48:48.699Z,7.53
2018-05-21T00:51:16.978Z,8.30
2018-05-21T00:53:45.274Z,10.70
2018-05-21T00:56:13.558Z,9.33
2018-05-21T00:58:41.834Z,9.27
2018-05-21T01:01:10.129Z,9.03
2018-05-21T01:03:38.406Z,8.90
2018-05-21T01:06:06.710Z,8.27
2018-05-21T01:08:35.020Z,8.10
2018-05-21T01:11:03.298Z,9.80
2018-05-21T01:13:31.590Z,9.20
2018-05-21T01:15:59.862Z,9.60
2018-05-21T01:18:28.161Z,10.43
2018-05-21T01:20:56.441Z,8.03
2018-05-21T01:23:24.711Z,7.87
2018-05-21T01:25:52.998Z,8.80
2018-05-21T01:28:21.274Z,9.03
2018-05-21T01:30:49.905Z,9.73
2018-05-21T01:33:18.196Z,9.47
2018-05-21T01:35:46.479Z,9.00
2018-05-21T01:38:14.758Z,10.27
2018-05-21T01:40:43.038Z,8.97
2018-05-21T01:43:11.346Z,10.13
2018-05-21T01:45:39.617Z,8.77
2018-05-21T01:48:07.905Z,7.97
2018-05-21T01:50:36.174Z,8.87
2018-05-21T01:53:04.449Z,7.83
2018-05-21T01:55:32.741Z,10.37
2018-05-21T01:58:01.022Z,8.87
2018-05-21T02:00:29.311Z,10.17
2018-05-21T02:02:57.598Z,9.50
2018-05-21T02:05:25.878Z,10.67
2018-05-21T02:07:54.174Z,9.30
2018-05-21T02:10:22.462Z,10.00
2018-05-21T02:12:50.739Z,8.77
2018-05-21T02:15:19.010Z,8.73
2018-05-21T02:17:47.297Z,9.97
2018-05-21T02:20:15.569Z,9.10
2018-05-21T02:22:43.878Z,9.00
2018-05-21T02:25:12.165Z,8.97
2018-05-21T02:27:40.438Z,9.27
2018-05-21T02:30:08.735Z,10.30
2018-05-21T02:32:37.018Z,9.07
2018-05-21T02:35:05.306Z,8.97
2018-05-21T02:37:33.587Z,10.77
2018-05-21T02:40:01.876Z,7.77
2018-05-21T02:42:30.154Z,10.20
2018-05-21T02:44:58.434Z,8.73
2018-05-21T02:47:26.722Z,9.40
2018-05-21T02:49:54.998Z,9.07
2018-05-21T02:52:23.272Z,7.77
2018-05-21T02:54:51.562Z,9.60
2018-05-21T02:57:19.890Z,7.63
2018-05-21T02:59:48.123Z,9.13
2018-05-21T03:02:16.394Z,9.20
2018-05-21T03:04:44.677Z,8.57
2018-05-21T03:07:12.962Z,9.40
2018-05-21T03:09:41.250Z,10.00
2018-05-21T03:12:09.554Z,11.57
2018-05-21T03:14:37.824Z,8.53
2018-05-21T03:17:06.102Z,11.33
2018-05-21T03:19:34.394Z,9.57
2018-05-21T03:22:02.718Z,10.50
2018-05-21T03:24:31.021Z,10.73
2018-05-21T03:26:59.299Z,8.67
2018-05-21T03:29:27.581Z,9.50
2018-05-21T03:31:55.870Z,7.83
2018-05-21T03:34:24.144Z,9.83
2018-05-21T03:36:52.453Z,7.93
2018-05-21T03:39:20.730Z,9.50
2018-05-21T03:41:49.014Z,9.53
2018-05-21T03:44:17.322Z,8.57
2018-05-21T03:46:46.002Z,9.43
2018-05-21T03:49:14.254Z,8.30
2018-05-21T03:51:42.529Z,8.13
2018-05-21T03:54:10.807Z,7.40
2018-05-21T03:56:39.092Z,8.40
2018-05-21T03:59:19.102Z,9.93
2018-05-21T04:01:59.170Z,8.40
2018-05-21T04:04:27.540Z,7.60
2018-05-21T04:06:55.737Z,10.03
2018-05-21T04:09:24.027Z,8.23
2018-05-21T04:11:52.361Z,7.20
2018-05-21T04:14:21.882Z,7.17
2018-05-21T04:16:50.152Z,7.80
2018-05-21T04:19:18.440Z,8.37
2018-05-21T04:21:46.733Z,7.33
2018-05-21T04:24:15.002Z,7.23
2018-05-21T04:26:43.290Z,7.50
2018-05-21T04:29:11.570Z,10.23
2018-05-21T04:31:39.865Z,8.27
2018-05-21T04:34:08.138Z,9.03
2018-05-21T04:36:36.423Z,10.17
2018-05-21T04:39:05.346Z,8.70
2018-05-21T04:41:33.621Z,8.20
2018-05-21T04:44:01.899Z,8.57
2018-05-21T04:46:30.206Z,8.27
2018-05-21T04:48:58.482Z,8.43
2018-05-21T04:51:26.750Z,8.00
2018-05-21T04:53:55.042Z,10.13
2018-05-21T04:56:23.766Z,8.33
2018-05-21T04:58:52.058Z,9.63
2018-05-21T05:01:20.340Z,9.30
2018-05-21T05:03:48.622Z,8.57
2018-05-21T05:06:16.917Z,8.70
2018-05-21T05:08:45.193Z,10.00
2018-05-21T05:11:13.486Z,10.00
2018-05-21T05:13:41.759Z,8.77
2018-05-21T05:16:10.056Z,7.27
2018-05-21T05:18:38.334Z,7.77
2018-05-21T05:21:06.651Z,8.37
2018-05-21T05:23:34.910Z,8.37
2018-05-21T05:26:03.194Z,9.80
2018-05-21T05:28:31.478Z,10.67
2018-05-21T05:30:59.785Z,9.77
2018-05-21T05:33:28.069Z,9.80
2018-05-21T05:35:56.392Z,9.40
2018-05-21T05:38:24.650Z,9.60
2018-05-21T05:40:52.933Z,10.07
2018-05-21T05:43:21.209Z,9.57
2018-05-21T05:45:49.504Z,9.57
2018-05-21T05:48:17.769Z,8.43
2018-05-21T05:50:46.038Z,9.43
2018-05-21T05:53:14.329Z,9.23
2018-05-21T05:55:42.610Z,7.70
2018-05-21T05:58:10.898Z,7.77
2018-05-21T06:00:39.186Z,7.07
2018-05-21T06:03:07.469Z,6.70
2018-05-21T06:05:35.742Z,5.17
2018-05-21T06:08:04.016Z,4.77
2018-05-21T06:10:32.295Z,5.50
2018-05-21T06:13:00.565Z,5.90
2018-05-21T06:15:28.967Z,5.23
2018-05-21T06:17:57.261Z,5.37
2018-05-21T06:20:25.522Z,5.10
2018-05-21T06:22:53.826Z,5.00
2018-05-21T06:25:22.091Z,5.00
2018-05-21T06:27:50.361Z,4.90
2018-05-21T06:30:18.642Z,5.30
2018-05-21T06:32:46.913Z,5.43
2018-05-21T06:35:15.478Z,5.67
2018-05-21T06:37:43.746Z,5.93
2018-05-21T06:40:12.954Z,5.53
2018-05-21T06:42:41.230Z,5.60
2018-05-21T06:45:09.512Z,5.60
2018-05-21T06:47:37.808Z,5.13
2018-05-21T06:50:06.078Z,4.77
2018-05-21T06:52:34.348Z,5.17
2018-05-21T06:55:02.619Z,4.90
2018-05-21T06:57:30.899Z,4.83
2018-05-21T06:59:59.979Z,4.20
2018-05-21T07:02:28.271Z,5.10
2018-05-21T07:04:56.548Z,5.13
2018-05-21T07:07:24.813Z,4.73
2018-05-21T07:09:53.090Z,5.10
2018-05-21T07:12:21.359Z,5.00
2018-05-21T07:14:49.625Z,5.20
2018-05-21T07:17:17.913Z,5.33
2018-05-21T07:19:46.182Z,4.80
2018-05-21T07:22:14.522Z,5.07
2018-05-21T07:24:48.377Z,5.17
2018-05-21T07:27:16.674Z,4.80
2018-05-21T07:29:44.961Z,4.73
2018-05-21T07:32:13.239Z,4.67
2018-05-21T07:34:41.510Z,4.77
2018-05-21T07:37:09.865Z,4.80
2018-05-21T07:39:38.126Z,5.00
2018-05-21T07:42:06.476Z,4.97
2018-05-21T07:44:34.748Z,5.30
2018-05-21T07:47:03.060Z,5.13
2018-05-21T07:49:31.338Z,5.13
2018-05-21T07:51:59.624Z,5.20
2018-05-21T07:54:27.894Z,5.07
2018-05-21T07:56:56.491Z,5.17
2018-05-21T07:59:24.777Z,5.30
2018-05-21T08:01:53.957Z,5.07
2018-05-21T08:04:22.249Z,5.30
2018-05-21T08:06:51.501Z,4.90
2018-05-21T08:09:19.758Z,5.00
2018-05-21T08:11:48.030Z,5.00
2018-05-21T08:14:16.315Z,5.30
2018-05-21T08:16:44.587Z,5.10
2018-05-21T08:19:12.854Z,4.90
2018-05-21T08:21:41.138Z,5.00
2018-05-21T08:24:09.430Z,5.57
2018-05-21T08:26:39.135Z,5.40
2018-05-21T08:29:07.411Z,4.87
2018-05-21T08:31:35.733Z,5.60
2018-05-21T08:34:04.014Z,5.20
2018-05-21T08:36:32.290Z,5.07
2018-05-21T08:39:00.594Z,5.10
2018-05-21T08:41:29.150Z,4.43
2018-05-21T08:43:57.450Z,5.03
2018-05-21T08:46:25.730Z,4.90
2018-05-21T08:48:54.067Z,5.57
2018-05-21T08:51:22.311Z,5.70
2018-05-21T08:53:50.594Z,5.13
2018-05-21T08:56:18.869Z,5.13
2018-05-21T08:58:47.213Z,5.57
2018-05-21T09:01:15.427Z,5.20
2018-05-21T09:03:43.702Z,5.57
2018-05-21T09:06:12.018Z,5.27
2018-05-21T09:08:40.292Z,5.43
2018-05-21T09:11:08.602Z,5.40
2018-05-21T09:13:36.866Z,5.17
2018-05-21T09:16:05.160Z,5.30
2018-05-21T09:18:33.768Z,4.83
2018-05-21T09:21:02.754Z,4.70
2018-05-21T09:23:31.094Z,5.33
2018-05-21T09:25:59.458Z,5.37
2018-05-21T09:28:27.647Z,5.10
2018-05-21T09:30:56.177Z,5.17
2018-05-21T09:33:24.454Z,5.03
2018-05-21T09:35:52.731Z,5.20
2018-05-21T09:38:20.995Z,5.07
2018-05-21T09:40:49.276Z,5.20
2018-05-21T09:43:17.626Z,5.33
2018-05-21T09:45:45.918Z,4.83
2018-05-21T09:48:14.207Z,5.00
2018-05-21T09:50:42.475Z,4.93
2018-05-21T09:53:10.750Z,5.40
2018-05-21T09:55:39.031Z,4.60
2018-05-21T09:58:07.315Z,5.17
2018-05-21T10:00:35.581Z,5.17
2018-05-21T10:03:03.875Z,4.77
2018-05-21T10:05:32.290Z,5.37
2018-05-21T10:08:00.662Z,5.40
2018-05-21T10:10:28.938Z,4.93
2018-05-21T10:12:57.227Z,5.07
2018-05-21T10:15:25.495Z,5.00
2018-05-21T10:17:53.790Z,4.93
2018-05-21T10:20:22.078Z,5.10
2018-05-21T10:22:50.347Z,5.30
2018-05-21T10:25:18.640Z,4.70
2018-05-21T10:27:46.918Z,4.60
2018-05-21T10:30:15.490Z,5.00
2018-05-21T10:32:43.798Z,4.80
2018-05-21T10:35:12.180Z,4.83
2018-05-21T10:37:40.467Z,4.90
2018-05-21T10:40:08.734Z,4.60
2018-05-21T10:42:37.132Z,4.87
2018-05-21T10:45:05.479Z,4.83
2018-05-21T10:47:33.767Z,4.90
2018-05-21T10:50:02.694Z,4.87
2018-05-21T10:52:31.208Z,4.60
2018-05-21T10:55:00.307Z,4.77
2018-05-21T10:57:28.614Z,4.97
2018-05-21T10:59:56.868Z,4.77
2018-05-21T11:02:25.549Z,4.60
2018-05-21T11:04:54.775Z,4.90
2018-05-21T11:07:23.046Z,4.60
2018-05-21T11:09:51.486Z,4.77
2018-05-21T11:12:19.882Z,5.03
2018-05-21T11:14:48.103Z,4.90
2018-05-21T11:17:16.400Z,4.60
2018-05-21T11:19:44.681Z,4.50
2018-05-21T11:22:12.958Z,4.50
2018-05-21T11:24:41.296Z,4.43
2018-05-21T11:27:09.510Z,4.63
2018-05-21T11:29:38.540Z,4.30
2018-05-21T11:32:06.813Z,4.40
2018-05-21T11:34:35.098Z,4.50
2018-05-21T11:37:03.376Z,4.63
2018-05-21T11:39:31.926Z,4.50
2018-05-21T11:42:00.202Z,4.60
2018-05-21T11:44:28.475Z,4.50
2018-05-21T11:46:56.759Z,4.60
2018-05-21T11:49:25.046Z,4.60
2018-05-21T11:51:53.353Z,4.70
2018-05-21T11:54:21.775Z,5.07
2018-05-21T11:56:50.058Z,4.60
2018-05-21T11:59:18.422Z,4.90
2018-05-21T12:01:46.680Z,4.77
2018-05-21T12:04:15.121Z,4.60
2018-05-21T12:06:43.417Z,4.40
2018-05-21T12:09:12.636Z,4.90
2018-05-21T12:11:40.918Z,4.90
2018-05-21T12:14:09.215Z,4.73
2018-05-21T12:16:37.499Z,4.67
2018-05-21T12:19:05.770Z,5.20
2018-05-21T12:21:34.054Z,4.70
2018-05-21T12:24:02.330Z,4.47
2018-05-21T12:26:30.646Z,4.90
2018-05-21T12:28:58.921Z,4.23
2018-05-21T12:31:27.210Z,4.43
2018-05-21T12:33:55.477Z,4.50
2018-05-21T12:36:23.761Z,5.00
2018-05-21T12:38:52.042Z,4.80
2018-05-21T12:41:20.346Z,4.77
2018-05-21T12:43:48.627Z,4.40
2018-05-21T12:46:16.906Z,4.60
2018-05-21T12:48:45.234Z,5.13
2018-05-21T12:51:13.506Z,5.00
2018-05-21T12:53:41.792Z,4.70
2018-05-21T12:56:10.073Z,4.90
2018-05-21T12:58:38.342Z,4.80
2018-05-21T13:01:06.631Z,4.77
2018-05-21T13:03:34.898Z,4.50
2018-05-21T13:06:03.202Z,4.73
2018-05-21T13:08:31.472Z,4.67
2018-05-21T13:10:59.751Z,4.60
2018-05-21T13:13:28.038Z,4.67
2018-05-21T13:15:56.298Z,4.30
2018-05-21T13:18:24.588Z,4.33
2018-05-21T13:20:52.866Z,4.07
2018-05-21T13:23:21.158Z,4.70
2018-05-21T13:25:49.429Z,4.63
2018-05-21T13:28:17.695Z,4.67
2018-05-21T13:30:45.973Z,4.50
2018-05-21T13:33:14.260Z,4.67
2018-05-21T13:35:42.534Z,4.70
2018-05-21T13:38:10.812Z,4.70
2018-05-21T13:40:39.415Z,4.60
2018-05-21T13:43:07.695Z,4.53
2018-05-21T13:45:35.958Z,4.70
2018-05-21T13:48:04.243Z,5.20
2018-05-21T13:50:32.981Z,4.43
2018-05-21T13:53:01.247Z,4.20
2018-05-21T13:55:29.534Z,4.90
2018-05-21T13:57:57.814Z,4.07
2018-05-21T14:00:26.097Z,4.70
2018-05-21T14:02:54.367Z,4.60
2018-05-21T14:05:22.682Z,4.17
2018-05-21T14:07:50.954Z,4.20
2018-05-21T14:10:19.242Z,4.50
2018-05-21T14:12:47.519Z,4.40
2018-05-21T14:15:15.810Z,4.83
2018-05-21T14:17:44.073Z,4.40
2018-05-21T14:20:12.452Z,4.53
2018-05-21T14:22:40.699Z,4.40
2018-05-21T14:25:09.009Z,4.20
2018-05-21T14:27:37.263Z,4.60
2018-05-21T14:30:05.583Z,4.50
2018-05-21T14:32:34.191Z,4.80
2018-05-21T14:35:02.463Z,4.57
2018-05-21T14:37:30.738Z,4.30
2018-05-21T14:39:59.022Z,4.90
2018-05-21T14:42:27.364Z,5.00
2018-05-21T14:44:55.646Z,4.77
2018-05-21T14:47:23.919Z,4.40
2018-05-21T14:49:52.216Z,4.40
2018-05-21T14:52:20.498Z,4.83
2018-05-21T14:54:48.779Z,4.53
2018-05-21T14:57:17.056Z,4.70
2018-05-21T14:59:45.720Z,4.70
2018-05-21T15:02:13.987Z,4.87
2018-05-21T15:04:42.266Z,4.73
2018-05-21T15:07:10.565Z,4.20
2018-05-21T15:09:38.856Z,4.40
2018-05-21T15:12:07.147Z,4.37
2018-05-21T15:14:35.574Z,4.50
2018-05-21T15:17:03.786Z,4.40
2018-05-21T15:19:32.271Z,4.50
2018-05-21T15:22:00.541Z,4.60
2018-05-21T15:24:28.840Z,4.70
2018-05-21T15:26:57.138Z,4.80
2018-05-21T15:29:25.489Z,4.67
2018-05-21T15:31:53.760Z,4.37
2018-05-21T15:34:22.052Z,4.37
2018-05-21T15:36:50.314Z,4.90
2018-05-21T15:39:18.607Z,4.80
2018-05-21T15:41:46.877Z,4.80
2018-05-21T15:44:15.156Z,4.70
2018-05-21T15:46:43.445Z,4.67
2018-05-21T15:49:11.704Z,4.67
2018-05-21T15:51:39.987Z,4.77
2018-05-21T15:54:08.284Z,4.63
2018-05-21T15:56:36.580Z,4.47
2018-05-21T15:59:04.852Z,4.90
2018-05-21T16:01:33.154Z,4.80
2018-05-21T16:04:01.446Z,4.50
2018-05-21T16:06:29.736Z,4.43
2018-05-21T16:08:58.050Z,4.53
2018-05-21T16:11:26.338Z,4.60
2018-05-21T16:13:54.626Z,4.93
2018-05-21T16:16:22.920Z,4.50
2018-05-21T16:18:51.174Z,4.50
2018-05-21T16:21:19.472Z,4.23
2018-05-21T16:23:47.754Z,5.20
2018-05-21T16:26:16.057Z,4.60
2018-05-21T16:28:44.339Z,4.37
2018-05-21T16:31:12.618Z,4.73
2018-05-21T16:33:40.895Z,4.47
2018-05-21T16:36:09.198Z,4.63
2018-05-21T16:38:37.471Z,4.43
2018-05-21T16:41:05.742Z,4.60
2018-05-21T16:43:34.150Z,4.73
2018-05-21T16:46:02.433Z,4.10
2018-05-21T16:48:30.756Z,4.50
2018-05-21T16:50:59.086Z,4.50
2018-05-21T16:53:27.416Z,4.73
2018-05-21T16:55:55.692Z,4.53
2018-05-21T16:58:23.957Z,4.30
2018-05-21T17:00:52.238Z,4.50
2018-05-21T17:03:20.518Z,4.53
2018-05-21T17:05:48.798Z,4.60
2018-05-21T17:08:17.082Z,4.63
2018-05-21T17:10:45.429Z,4.37
2018-05-21T17:13:13.704Z,4.77
2018-05-21T17:15:41.984Z,4.40
2018-05-21T17:18:10.402Z,4.43
2018-05-21T17:20:38.671Z,4.83
2018-05-21T17:23:07.098Z,4.43
2018-05-21T17:25:35.591Z,4.60
2018-05-21T17:28:03.892Z,5.20
2018-05-21T17:30:32.506Z,5.47
2018-05-21T17:33:00.755Z,5.30
2018-05-21T17:35:29.193Z,4.90
2018-05-21T17:37:57.416Z,5.03
2018-05-21T17:40:25.705Z,5.30
2018-05-21T17:42:53.973Z,4.17
2018-05-21T17:45:22.262Z,5.60
2018-05-21T17:47:50.542Z,5.30
2018-05-21T17:50:18.806Z,4.70
2018-05-21T17:52:47.086Z,4.30
2018-05-21T17:55:15.355Z,5.27
2018-05-21T17:57:43.644Z,4.70
2018-05-21T18:00:11.919Z,4.77
2018-05-21T18:02:40.516Z,5.03
2018-05-21T18:05:08.786Z,5.40
2018-05-21T18:07:37.058Z,5.20
2018-05-21T18:10:05.366Z,5.33
2018-05-21T18:12:33.655Z,5.07
2018-05-21T18:15:01.964Z,4.70
2018-05-21T18:17:30.246Z,5.07
2018-05-21T18:19:58.524Z,5.73
2018-05-21T18:22:26.807Z,4.97
2018-05-21T18:24:55.144Z,5.60
2018-05-21T18:27:23.451Z,5.00
2018-05-21T18:29:51.727Z,5.60
2018-05-21T18:32:20.039Z,5.83
2018-05-21T18:34:49.031Z,5.67
2018-05-21T18:37:17.312Z,5.07
2018-05-21T18:39:45.569Z,5.20
2018-05-21T18:42:13.906Z,5.77
2018-05-21T18:44:42.126Z,7.03
2018-05-21T18:47:10.405Z,6.33
2018-05-21T18:49:38.678Z,5.07
2018-05-21T18:52:06.960Z,6.13
2018-05-21T18:54:35.265Z,5.30
2018-05-21T18:57:03.539Z,6.60
2018-05-21T18:59:31.831Z,5.60
2018-05-21T19:02:00.127Z,6.67
2018-05-21T19:04:28.411Z,5.67
2018-05-21T19:06:56.694Z,6.87
2018-05-21T19:09:24.967Z,6.13
2018-05-21T19:11:53.263Z,5.30
2018-05-21T19:14:21.531Z,5.00
2018-05-21T19:16:49.809Z,5.40
2018-05-21T19:19:18.097Z,5.47
2018-05-21T19:21:46.445Z,6.10
2018-05-21T19:24:14.724Z,6.57
2018-05-21T19:26:43.001Z,6.00
2018-05-21T19:29:11.318Z,5.17
2018-05-21T19:31:39.600Z,5.57
2018-05-21T19:34:07.884Z,5.63
2018-05-21T19:36:36.176Z,5.20
2018-05-21T19:39:04.454Z,5.00
2018-05-21T19:41:32.746Z,6.27
2018-05-21T19:44:01.019Z,6.80
2018-05-21T19:46:29.331Z,5.67
2018-05-21T19:48:57.582Z,5.77
2018-05-21T19:51:26.510Z,7.40
2018-05-21T19:53:54.786Z,6.20
2018-05-21T19:56:23.070Z,5.77
2018-05-21T19:58:51.350Z,5.43
2018-05-21T20:01:19.638Z,5.87
2018-05-21T20:03:47.941Z,7.17
2018-05-21T20:06:16.209Z,6.20
2018-05-21T20:08:44.494Z,6.17
2018-05-21T20:11:12.766Z,6.30
2018-05-21T20:13:41.118Z,6.93
2018-05-21T20:16:09.332Z,5.67
2018-05-21T20:18:37.844Z,5.70
2018-05-21T20:21:06.095Z,6.90
2018-05-21T20:23:34.397Z,6.10
2018-05-21T20:26:02.676Z,5.97
2018-05-21T20:28:30.943Z,5.90
2018-05-21T20:30:59.230Z,5.60
2018-05-21T20:33:27.510Z,7.87
2018-05-21T20:35:56.679Z,6.30
2018-05-21T20:38:24.953Z,6.03
2018-05-21T20:40:53.225Z,6.50
2018-05-21T20:43:21.547Z,6.13
2018-05-21T20:45:49.826Z,7.67
2018-05-21T20:48:19.018Z,8.40
2018-05-21T20:50:47.286Z,7.43
2018-05-21T20:53:15.570Z,6.37
2018-05-21T20:55:43.839Z,6.53
2018-05-21T20:58:12.112Z,7.13
2018-05-21T21:00:40.403Z,6.97
2018-05-21T21:03:08.679Z,5.90
2018-05-21T21:05:37.075Z,6.07
2018-05-21T21:08:05.350Z,7.17
2018-05-21T21:10:34.458Z,6.77
2018-05-21T21:13:02.656Z,6.20
2018-05-21T21:15:30.966Z,6.60
2018-05-21T21:17:59.246Z,5.87
2018-05-21T21:20:27.519Z,6.83
2018-05-21T21:22:55.806Z,6.80
2018-05-21T21:25:24.079Z,7.13
2018-05-21T21:27:52.649Z,6.00
2018-05-21T21:30:20.932Z,7.00
2018-05-21T21:32:49.311Z,5.90
2018-05-21T21:35:17.598Z,6.47
2018-05-21T21:37:45.928Z,6.40
2018-05-21T21:40:14.242Z,6.70
2018-05-21T21:42:42.509Z,6.30
2018-05-21T21:45:10.802Z,6.63
2018-05-21T21:47:39.083Z,6.93
2018-05-21T21:50:07.358Z,6.37
2018-05-21T21:52:35.644Z,6.70
2018-05-21T21:55:03.922Z,7.77
2018-05-21T21:57:32.206Z,6.80
2018-05-21T22:00:00.470Z,6.50
2018-05-21T22:02:28.786Z,6.50
2018-05-21T22:04:57.072Z,6.17
2018-05-21T22:07:25.361Z,7.43
2018-05-21T22:09:53.654Z,6.47
2018-05-21T22:12:21.935Z,5.87
2018-05-21T22:14:50.219Z,6.23
2018-05-21T22:17:18.491Z,6.00
2018-05-21T22:19:46.774Z,6.10
2018-05-21T22:22:15.050Z,5.97
2018-05-21T22:24:43.330Z,5.70
2018-05-21T22:27:11.606Z,5.87
2018-05-21T22:29:39.873Z,5.60
2018-05-21T22:32:08.162Z,5.07
2018-05-21T22:34:36.439Z,5.37
2018-05-21T22:37:06.471Z,5.03
2018-05-21T22:39:34.734Z,4.77
2018-05-21T22:42:03.003Z,4.77
2018-05-21T22:44:31.296Z,5.00
2018-05-21T22:46:59.802Z,4.50
2018-05-21T22:49:28.090Z,4.60
2018-05-21T22:51:56.374Z,4.60
2018-05-21T22:54:35.451Z,5.47
2018-05-21T22:57:03.721Z,5.33
2018-05-21T22:59:32.561Z,4.90
2018-05-21T23:02:00.820Z,5.57
2018-05-21T23:04:29.102Z,5.73
2018-05-21T23:06:57.394Z,4.77
2018-05-21T23:09:25.679Z,6.00
2018-05-21T23:11:53.962Z,4.83
2018-05-21T23:14:22.343Z,5.10
2018-05-21T23:16:50.536Z,5.40
2018-05-21T23:19:18.815Z,5.50
2018-05-21T23:21:47.090Z,5.10
2018-05-21T23:24:15.382Z,5.27
2018-05-21T23:26:44.178Z,5.80
2018-05-21T23:29:12.459Z,5.93
2018-05-21T23:31:40.725Z,5.83
2018-05-21T23:34:09.000Z,5.30
2018-05-21T23:36:37.278Z,5.00
2018-05-21T23:39:05.555Z,5.37
2018-05-21T23:41:33.848Z,5.20
2018-05-21T23:44:02.115Z,5.00
2018-05-21T23:46:30.395Z,4.80
2018-05-21T23:48:58.678Z,5.30
2018-05-21T23:51:26.942Z,5.10
2018-05-21T23:53:56.018Z,4.80
2018-05-21T23:56:24.739Z,5.10
2018-05-21T23:58:53.274Z,5.40
